Weather at Livingston Municipal Airport

Public forecast

Using degrees Fahrenheit for public forecast. Weather courtesy of forecast.io.

Closest aviation weather report (METAR) to Livingston Municipal Airport

Closest report is Cleveland Municipal Airport, 19.8 nm (36.7 km) S. Retrieved UTC (0 seconds ago):

Closest aviation forecast (TAF) to Livingston Municipal Airport

Closest forecast is Conroe-North Houston Regional Airport, 28.7 nm (53.1 km) SW. Retrieved 2021/08/04 06:22 UTC (32 minutes ago):

TAF KCXO 040520Z 0406/0506 VRB03KT P6SM FEW035 FM041700 04005KT P6SM SCT040 FM050000 VRB03KT P6SM SKC